Time;durP1;ratioP1;P1;durP2;ratioP2;P2;SDS_P1;SDS_P2;PMS_P1;PMS_P2;Temp;Humidity;BMP_temperature;BMP_pressure;BME280_temperature;BME280_humidity;BME280_pressure;Samples;Min_cycle;Max_cycle;Signal;HPM_P1;HPM_P2
2021/01/12 18:53:03;;;;;;;954.80;789.67;;;;;;;;;;5063899;27;20460;-41
2021/01/12 18:55:32;;;;;;;970.70;797.85;;;;;;;;;;5035193;28;20359;-39
2021/01/12 18:57:58;;;;;;;952.33;784.08;;;;;;;;;;5020569;28;20028;-39
2021/01/12 19:01:50;;;;;;;931.97;773.90;;;;;;;;;;5046181;27;20421;-37
2021/01/12 19:04:17;;;;;;;923.13;766.03;;;;;;;;;;5027715;28;20131;-38
2021/01/12 19:09:56;;;;;;;883.72;753.05;;;;;;;;;;5045358;27;20481;-42
2021/01/12 19:17:43;;;;;;;852.97;728.83;;;;;;;;;;5017697;27;20835;-41
2021/01/12 19:20:09;;;;;;;557.42;469.30;;;;;;;;;;4989983;28;20041;-42
2021/01/12 19:22:35;;;;;;;638.60;559.55;;;;;;;;;;4997327;28;20029;-44
2021/01/12 19:48:02;;;;;;;81.22;56.95;;;;;;;;;;5016103;27;20497;-51
2021/01/12 19:50:30;;;;;;;86.97;60.88;;;;;;;;;;5041114;27;20791;-51
2021/01/12 19:52:57;;;;;;;77.35;61.63;;;;;;;;;;5031138;28;20037;-49
2021/01/12 19:55:26;;;;;;;64.07;47.47;;;;;;;;;;5026242;28;20047;-52
2021/01/12 19:57:56;;;;;;;66.63;44.97;;;;;;;;;;5031320;28;20036;-51
2021/01/12 20:00:24;;;;;;;75.82;59.50;;;;;;;;;;5032679;28;20141;-51
2021/01/12 20:02:52;;;;;;;65.25;47.63;;;;;;;;;;5041765;28;20561;-52
2021/01/12 20:05:21;;;;;;;67.50;49.65;;;;;;;;;;5023627;28;20132;-52
2021/01/12 20:07:48;;;;;;;69.00;48.03;;;;;;;;;;5020558;27;20049;-53
2021/01/12 20:10:20;;;;;;;52.80;38.53;;;;;;;;;;5013717;28;20036;-55
2021/01/12 20:13:04;;;;;;;51.75;38.13;;;;;;;;;;5026890;27;20049;-52
2021/01/12 20:15:34;;;;;;;42.40;27.73;;;;;;;;;;5010221;28;20688;-52
2021/01/12 20:18:15;;;;;;;43.80;29.17;;;;;;;;;;5040621;28;20563;-53
2021/01/12 20:20:50;;;;;;;38.45;25.85;;;;;;;;;;5021293;28;20047;-52
2021/01/12 20:23:19;;;;;;;38.08;26.00;;;;;;;;;;5045326;27;20028;-53
2021/01/12 20:25:47;;;;;;;34.60;23.98;;;;;;;;;;5033581;28;20035;-54
2021/01/12 20:28:17;;;;;;;34.83;23.98;;;;;;;;;;5018621;27;20041;-53
2021/01/12 20:30:46;;;;;;;35.63;23.70;;;;;;;;;;4998303;28;20335;-53
2021/01/12 20:33:13;;;;;;;29.33;20.92;;;;;;;;;;4996924;28;20032;-52
2021/01/12 20:35:47;;;;;;;29.23;19.83;;;;;;;;;;5026246;28;20074;-52
2021/01/12 20:38:36;;;;;;;40.85;25.90;;;;;;;;;;5062192;28;20040;-53
2021/01/12 20:41:11;;;;;;;38.30;26.58;;;;;;;;;;5076032;27;20127;-54
2021/01/12 20:43:41;;;;;;;39.22;26.45;;;;;;;;;;5062789;27;20058;-52
2021/01/12 20:46:09;;;;;;;40.92;25.35;;;;;;;;;;5075134;27;20047;-52
2021/01/12 20:48:38;;;;;;;36.03;24.33;;;;;;;;;;5082397;27;20090;-53
2021/01/12 20:51:11;;;;;;;35.35;22.73;;;;;;;;;;5088231;27;20066;-53
2021/01/12 20:53:40;;;;;;;41.65;27.40;;;;;;;;;;5087294;23;20101;-86
2021/01/12 20:56:09;;;;;;;44.05;30.50;;;;;;;;;;5011322;28;20037;-85
2021/01/12 20:58:38;;;;;;;34.13;23.58;;;;;;;;;;4983043;28;20034;-87
2021/01/12 21:01:06;;;;;;;33.60;23.13;;;;;;;;;;5005916;28;20942;-84
2021/01/12 21:03:33;;;;;;;32.25;20.10;;;;;;;;;;5013173;28;20037;-85
2021/01/12 21:06:00;;;;;;;30.73;20.23;;;;;;;;;;4984720;28;20536;-86
2021/01/12 21:08:27;;;;;;;33.83;21.15;;;;;;;;;;4977507;28;20045;-85
2021/01/12 21:10:56;;;;;;;31.00;20.08;;;;;;;;;;5020774;28;20044;-85
2021/01/12 21:13:23;;;;;;;31.60;20.58;;;;;;;;;;4992012;28;20750;-85
2021/01/12 21:15:51;;;;;;;40.03;25.75;;;;;;;;;;4963043;28;20037;-85
2021/01/12 21:18:18;;;;;;;805.50;723.53;;;;;;;;;;4945745;28;20034;-88
2021/01/12 21:20:48;;;;;;;316.27;249.80;;;;;;;;;;4951705;28;20037;-86
2021/01/12 21:23:15;;;;;;;58.38;43.72;;;;;;;;;;4949087;28;20115;-87
2021/01/12 21:25:41;;;;;;;48.83;34.00;;;;;;;;;;4975379;28;20030;-87
2021/01/12 21:28:11;;;;;;;40.35;25.10;;;;;;;;;;4965498;28;20029;-88
2021/01/12 21:30:39;;;;;;;33.17;21.10;;;;;;;;;;4978123;28;20363;-87
2021/01/12 21:33:11;;;;;;;29.85;19.98;;;;;;;;;;5019588;28;20032;-86
2021/01/12 21:35:41;;;;;;;32.70;19.60;;;;;;;;;;4975878;28;20042;-86
2021/01/12 21:38:09;;;;;;;22.58;15.07;;;;;;;;;;4959760;28;20030;-86
2021/01/12 21:40:36;;;;;;;27.98;17.00;;;;;;;;;;4967760;28;20037;-87
2021/01/12 21:43:04;;;;;;;24.75;16.15;;;;;;;;;;4975661;28;20045;-86
2021/01/12 21:45:30;;;;;;;22.88;14.73;;;;;;;;;;4984495;28;21151;-87
2021/01/12 21:47:58;;;;;;;20.80;12.57;;;;;;;;;;4983346;28;20879;-86
2021/01/12 21:50:28;;;;;;;21.98;13.88;;;;;;;;;;4978807;28;20042;-87
2021/01/12 21:52:55;;;;;;;24.67;16.67;;;;;;;;;;4960360;28;20053;-87
2021/01/12 21:55:23;;;;;;;23.27;13.85;;;;;;;;;;4991669;28;20050;-87
2021/01/12 21:57:50;;;;;;;25.02;14.73;;;;;;;;;;4974003;28;20046;-87
2021/01/12 22:00:18;;;;;;;33.83;20.80;;;;;;;;;;4971216;28;20033;-88
2021/01/12 22:02:44;;;;;;;28.08;17.70;;;;;;;;;;4994045;28;20071;-87
2021/01/12 22:05:14;;;;;;;28.60;17.90;;;;;;;;;;4995222;28;20847;-86
2021/01/12 22:07:45;;;;;;;25.67;14.15;;;;;;;;;;4997346;28;20079;-86
2021/01/12 22:10:14;;;;;;;22.65;13.50;;;;;;;;;;4970108;28;20084;-88
2021/01/12 22:12:50;;;;;;;21.88;13.32;;;;;;;;;;4989258;28;20130;-88
2021/01/12 22:15:21;;;;;;;34.53;23.70;;;;;;;;;;4962395;28;20042;-88
2021/01/12 22:17:48;;;;;;;36.33;21.80;;;;;;;;;;5002485;28;21290;-91
2021/01/12 22:20:16;;;;;;;32.92;21.98;;;;;;;;;;5007259;28;20087;-92
2021/01/12 22:22:44;;;;;;;32.55;20.20;;;;;;;;;;4965584;28;20065;-93
2021/01/12 22:25:12;;;;;;;32.05;19.20;;;;;;;;;;4985922;28;20439;-93
2021/01/12 22:27:39;;;;;;;31.27;19.27;;;;;;;;;;4983360;28;20068;-93
2021/01/12 22:30:08;;;;;;;34.47;20.40;;;;;;;;;;5005481;28;20473;-93
2021/01/12 22:32:36;;;;;;;33.42;19.95;;;;;;;;;;4975798;28;20116;-91
2021/01/12 22:35:07;;;;;;;42.65;25.75;;;;;;;;;;4977352;28;20040;-92
2021/01/12 22:37:35;;;;;;;33.47;21.35;;;;;;;;;;4975098;28;20111;-91
2021/01/12 22:40:04;;;;;;;33.90;21.58;;;;;;;;;;4980051;28;20686;-90
2021/01/12 22:42:33;;;;;;;40.33;24.75;;;;;;;;;;4978514;28;20045;-92
2021/01/12 22:45:22;;;;;;;41.78;26.15;;;;;;;;;;4988004;28;20022;-91
2021/01/12 22:47:49;;;;;;;30.35;18.42;;;;;;;;;;4959473;28;20045;-92
2021/01/12 22:50:16;;;;;;;32.22;19.98;;;;;;;;;;4983934;28;20115;-91
2021/01/12 22:52:43;;;;;;;34.97;20.70;;;;;;;;;;4944149;28;20035;-90
2021/01/12 22:55:10;;;;;;;31.92;18.02;;;;;;;;;;4974519;28;20078;-91
2021/01/12 22:57:38;;;;;;;26.13;14.98;;;;;;;;;;4942437;28;20061;-92
2021/01/12 23:00:21;;;;;;;21.40;12.55;;;;;;;;;;4975250;28;20092;-92
2021/01/12 23:02:50;;;;;;;19.42;10.25;;;;;;;;;;4987956;28;20062;-91
2021/01/12 23:05:19;;;;;;;15.82;7.97;;;;;;;;;;4971297;28;20487;-91
2021/01/12 23:07:46;;;;;;;18.17;9.50;;;;;;;;;;4969496;28;20033;-90
2021/01/12 23:10:15;;;;;;;15.07;7.25;;;;;;;;;;4979986;28;20045;-89
2021/01/12 23:12:45;;;;;;;19.35;10.32;;;;;;;;;;4969843;28;20060;-89
2021/01/12 23:15:14;;;;;;;19.30;9.75;;;;;;;;;;4975487;28;20030;-90
2021/01/12 23:17:43;;;;;;;16.98;8.93;;;;;;;;;;4986002;28;20156;-90
2021/01/12 23:20:14;;;;;;;21.27;10.50;;;;;;;;;;4947767;28;20106;-91
2021/01/12 23:22:48;;;;;;;22.10;11.40;;;;;;;;;;4969447;28;20084;-93
2021/01/12 23:25:15;;;;;;;21.77;11.57;;;;;;;;;;4969279;28;20091;-90
2021/01/12 23:27:42;;;;;;;20.02;10.00;;;;;;;;;;4961452;28;21076;-91
2021/01/12 23:30:17;;;;;;;18.98;9.93;;;;;;;;;;4989063;28;20096;-92
2021/01/12 23:32:45;;;;;;;30.20;15.57;;;;;;;;;;5000637;28;20156;-91
2021/01/12 23:35:16;;;;;;;26.02;13.80;;;;;;;;;;4997443;28;20065;-89
2021/01/12 23:37:42;;;;;;;25.80;14.75;;;;;;;;;;4994388;28;20128;-90
2021/01/12 23:40:10;;;;;;;20.80;11.70;;;;;;;;;;4988298;28;20037;-91
2021/01/12 23:42:38;;;;;;;22.50;12.13;;;;;;;;;;4965375;28;20092;-91
2021/01/12 23:45:07;;;;;;;35.65;18.25;;;;;;;;;;4987895;28;20051;-92
2021/01/12 23:47:33;;;;;;;31.58;16.38;;;;;;;;;;4956719;28;20049;-90
2021/01/12 23:50:00;;;;;;;24.00;13.02;;;;;;;;;;4977522;28;20042;-90
2021/01/12 23:52:28;;;;;;;49.55;27.45;;;;;;;;;;4985214;28;20443;-90
2021/01/12 23:54:57;;;;;;;52.08;30.48;;;;;;;;;;4987381;28;20521;-91
2021/01/12 23:57:27;;;;;;;39.80;22.50;;;;;;;;;;4987652;28;20038;-90
2021/01/12 23:59:55;;;;;;;33.38;18.60;;;;;;;;;;5004138;28;20045;-92
